createdAt,value
2017-07-17T00:00:32.559Z,95.16
2017-07-17T00:03:01.341Z,95.05
2017-07-17T00:05:29.693Z,95.14
2017-07-17T00:07:58.054Z,94.88
2017-07-17T00:10:26.405Z,95.14
2017-07-17T00:12:54.776Z,95.59
2017-07-17T00:15:23.133Z,95.70
2017-07-17T00:17:51.689Z,95.70
2017-07-17T00:20:20.031Z,95.47
2017-07-17T00:22:48.434Z,95.72
2017-07-17T00:25:16.801Z,95.75
2017-07-17T00:27:45.162Z,95.54
2017-07-17T00:30:13.537Z,95.65
2017-07-17T00:32:41.901Z,95.65
2017-07-17T00:35:11.047Z,95.65
2017-07-17T00:37:39.399Z,95.71
2017-07-17T00:40:07.761Z,95.86
2017-07-17T00:42:36.517Z,95.21
2017-07-17T00:45:05.139Z,95.62
2017-07-17T00:47:34.246Z,95.69
2017-07-17T00:50:02.604Z,95.62
2017-07-17T00:52:31.355Z,95.59
2017-07-17T00:54:59.704Z,95.24
2017-07-17T00:57:28.268Z,95.37
2017-07-17T00:59:56.629Z,95.09
2017-07-17T01:02:24.985Z,95.48
2017-07-17T01:04:53.352Z,94.49
2017-07-17T01:07:21.713Z,94.26
2017-07-17T01:09:50.412Z,94.49
2017-07-17T01:12:18.766Z,93.64
2017-07-17T01:14:47.119Z,93.59
2017-07-17T01:17:15.881Z,93.63
2017-07-17T01:19:44.284Z,93.92
2017-07-17T01:22:12.819Z,93.51
2017-07-17T01:24:41.173Z,92.71
2017-07-17T01:27:09.529Z,93.39
2017-07-17T01:29:38.288Z,94.25
2017-07-17T01:32:06.651Z,94.64
2017-07-17T01:34:35.016Z,93.47
2017-07-17T01:37:03.380Z,93.34
2017-07-17T01:39:32.100Z,93.07
2017-07-17T01:42:00.454Z,93.82
2017-07-17T01:44:28.808Z,93.75
2017-07-17T01:46:57.557Z,93.87
2017-07-17T01:49:25.917Z,92.40
2017-07-17T01:51:54.270Z,92.89
2017-07-17T01:54:22.622Z,92.61
2017-07-17T01:56:51.384Z,92.62
2017-07-17T01:59:19.756Z,92.39
2017-07-17T02:01:48.111Z,92.01
2017-07-17T02:04:16.463Z,92.18
2017-07-17T02:06:44.992Z,92.09
2017-07-17T02:09:14.939Z,92.51
2017-07-17T02:11:43.688Z,93.11
2017-07-17T02:14:12.052Z,93.00
2017-07-17T02:16:40.413Z,92.05
2017-07-17T02:19:09.085Z,92.39
2017-07-17T02:21:37.837Z,92.54
2017-07-17T02:24:06.195Z,92.00
2017-07-17T02:26:34.544Z,91.54
2017-07-17T02:29:03.171Z,91.58
2017-07-17T02:31:31.533Z,91.38
2017-07-17T02:33:59.893Z,91.22
2017-07-17T02:36:28.255Z,90.98
2017-07-17T02:38:57.108Z,91.31
2017-07-17T02:41:25.476Z,90.84
2017-07-17T02:43:53.824Z,90.80
2017-07-17T02:46:22.544Z,90.58
2017-07-17T02:48:50.900Z,91.12
2017-07-17T02:51:19.257Z,90.94
2017-07-17T02:53:48.012Z,90.31
2017-07-17T02:56:16.364Z,89.91
2017-07-17T02:58:44.715Z,90.07
2017-07-17T03:01:13.079Z,90.91
2017-07-17T03:03:41.839Z,90.07
2017-07-17T03:06:10.183Z,89.94
2017-07-17T03:08:38.980Z,90.26
2017-07-17T03:11:07.336Z,90.29
2017-07-17T03:13:35.697Z,90.19
2017-07-17T03:16:04.472Z,89.83
2017-07-17T03:18:33.224Z,89.40
2017-07-17T03:21:01.908Z,89.50
2017-07-17T03:23:51.049Z,89.61
2017-07-17T03:26:19.655Z,89.19
2017-07-17T03:28:48.004Z,89.53
2017-07-17T03:31:16.352Z,89.09
2017-07-17T03:33:45.134Z,88.85
2017-07-17T03:36:13.507Z,89.33
2017-07-17T03:38:41.868Z,89.11
2017-07-17T03:41:10.239Z,89.57
2017-07-17T03:43:38.609Z,89.32
2017-07-17T03:46:06.969Z,88.96
2017-07-17T03:48:35.638Z,89.56
2017-07-17T03:51:04.395Z,88.93
2017-07-17T03:53:32.742Z,88.14
2017-07-17T03:56:01.108Z,87.36
2017-07-17T03:58:29.451Z,86.79
2017-07-17T04:00:58.404Z,86.69
2017-07-17T04:03:26.760Z,86.40
2017-07-17T04:05:55.113Z,85.25
2017-07-17T04:08:23.870Z,83.33
2017-07-17T04:10:52.233Z,82.02
2017-07-17T04:13:20.612Z,83.14
2017-07-17T04:15:49.074Z,84.51
2017-07-17T04:18:17.432Z,85.34
2017-07-17T04:20:45.781Z,86.14
2017-07-17T04:23:14.149Z,86.29
2017-07-17T04:25:42.500Z,85.19
2017-07-17T04:28:11.345Z,85.35
2017-07-17T04:30:40.102Z,85.37
2017-07-17T04:33:08.448Z,85.43
2017-07-17T04:35:36.814Z,85.46
2017-07-17T04:38:05.206Z,84.36
2017-07-17T04:40:33.563Z,84.58
2017-07-17T04:43:02.405Z,84.26
2017-07-17T04:45:31.192Z,81.68
2017-07-17T04:47:59.560Z,81.24
2017-07-17T04:50:27.916Z,79.16
2017-07-17T04:52:56.281Z,78.35
2017-07-17T04:55:25.019Z,75.30
2017-07-17T04:57:53.906Z,74.40
2017-07-17T05:00:22.231Z,79.67
2017-07-17T05:02:51.180Z,65.36
2017-07-17T05:05:19.532Z,60.86
2017-07-17T05:07:47.880Z,68.69
2017-07-17T05:10:16.641Z,60.40
2017-07-17T05:12:44.997Z,57.21
2017-07-17T05:15:13.358Z,60.72
2017-07-17T05:17:41.703Z,59.11
2017-07-17T05:20:10.643Z,58.62
2017-07-17T05:22:38.987Z,49.38
2017-07-17T05:25:07.335Z,42.10
2017-07-17T05:27:35.706Z,41.71
2017-07-17T05:30:04.073Z,40.74
2017-07-17T05:32:32.443Z,42.92
2017-07-17T05:35:00.802Z,48.23
2017-07-17T05:37:29.151Z,55.24
2017-07-17T05:39:57.905Z,51.98
2017-07-17T05:42:26.471Z,58.00
2017-07-17T05:44:54.830Z,53.69
2017-07-17T05:47:23.188Z,59.03
2017-07-17T05:49:51.548Z,62.55
2017-07-17T05:52:19.906Z,63.75
2017-07-17T05:54:48.370Z,55.84
2017-07-17T05:57:16.725Z,48.95
2017-07-17T05:59:45.096Z,43.21
2017-07-17T06:02:13.457Z,48.47
2017-07-17T06:04:42.421Z,56.06
2017-07-17T06:07:10.763Z,53.75
2017-07-17T06:09:39.116Z,59.21
2017-07-17T06:12:07.872Z,47.22
2017-07-17T06:14:36.233Z,45.02
2017-07-17T06:17:04.588Z,49.40
2017-07-17T06:19:32.944Z,57.63
2017-07-17T06:22:01.898Z,58.50
2017-07-17T06:24:30.248Z,43.16
2017-07-17T06:26:58.600Z,50.77
2017-07-17T06:29:27.437Z,44.37
2017-07-17T06:31:55.783Z,38.40
2017-07-17T06:34:24.356Z,34.04
2017-07-17T06:36:52.714Z,34.87
2017-07-17T06:39:21.505Z,34.64
2017-07-17T06:41:50.264Z,41.31
2017-07-17T06:44:18.614Z,36.76
2017-07-17T06:46:46.981Z,34.86
2017-07-17T06:49:15.323Z,33.15
2017-07-17T06:51:43.886Z,33.42
2017-07-17T06:54:12.242Z,30.96
2017-07-17T06:56:40.636Z,27.50
2017-07-17T06:59:09.062Z,27.62
2017-07-17T07:01:37.813Z,29.11
2017-07-17T07:04:06.192Z,29.92
2017-07-17T07:06:34.555Z,33.57
2017-07-17T07:09:02.913Z,39.61
2017-07-17T07:11:31.271Z,37.06
2017-07-17T07:14:00.185Z,29.51
2017-07-17T07:16:28.536Z,33.00
2017-07-17T07:18:57.530Z,39.95
2017-07-17T07:21:25.889Z,34.67
2017-07-17T07:23:54.227Z,32.75
2017-07-17T07:26:22.745Z,32.87
2017-07-17T07:28:51.103Z,37.45
2017-07-17T07:31:19.457Z,42.91
2017-07-17T07:33:47.821Z,44.92
2017-07-17T07:36:16.173Z,46.04
2017-07-17T07:38:44.551Z,34.86
2017-07-17T07:41:12.909Z,41.13
2017-07-17T07:43:41.490Z,35.56
2017-07-17T07:46:09.844Z,39.51
2017-07-17T07:48:38.240Z,40.38
2017-07-17T07:51:06.591Z,43.38
2017-07-17T07:53:34.941Z,36.33
2017-07-17T07:56:03.302Z,32.45
2017-07-17T07:58:31.664Z,35.03
2017-07-17T08:01:00.017Z,29.66
2017-07-17T08:03:28.365Z,33.94
2017-07-17T08:05:56.793Z,35.21
2017-07-17T08:08:25.149Z,27.27
2017-07-17T08:10:53.675Z,25.07
2017-07-17T08:13:22.033Z,25.65
2017-07-17T08:15:50.375Z,32.40
2017-07-17T08:18:19.124Z,37.38
2017-07-17T08:20:47.473Z,41.84
2017-07-17T08:23:15.846Z,36.81
2017-07-17T08:25:44.195Z,29.36
2017-07-17T08:28:12.877Z,28.86
2017-07-17T08:30:41.219Z,29.86
2017-07-17T08:33:09.801Z,25.19
2017-07-17T08:35:38.153Z,26.45
2017-07-17T08:38:06.534Z,27.81
2017-07-17T08:40:34.901Z,30.84
2017-07-17T08:43:03.264Z,31.52
2017-07-17T08:45:32.022Z,28.86
2017-07-17T08:48:00.371Z,34.69
2017-07-17T08:50:28.865Z,35.42
2017-07-17T08:52:57.225Z,32.52
2017-07-17T08:55:25.649Z,31.36
2017-07-17T08:57:53.995Z,25.97
2017-07-17T09:00:22.375Z,24.89
2017-07-17T09:02:51.059Z,24.30
2017-07-17T09:05:19.416Z,23.63
2017-07-17T09:07:47.772Z,22.78
2017-07-17T09:10:16.533Z,23.38
2017-07-17T09:12:44.884Z,23.20
2017-07-17T09:15:13.377Z,22.50
2017-07-17T09:17:41.719Z,22.43
2017-07-17T09:20:10.069Z,23.37
2017-07-17T09:22:38.428Z,23.15
2017-07-17T09:25:06.769Z,23.84
2017-07-17T09:27:35.128Z,23.41
2017-07-17T09:30:03.485Z,24.31
2017-07-17T09:32:32.247Z,22.27
2017-07-17T09:35:00.605Z,23.25
2017-07-17T09:37:28.958Z,23.22
2017-07-17T09:39:57.326Z,24.07
2017-07-17T09:42:25.679Z,24.12
2017-07-17T09:44:54.040Z,26.76
2017-07-17T09:47:22.384Z,25.02
2017-07-17T09:49:50.749Z,23.96
2017-07-17T09:52:19.101Z,23.24
2017-07-17T09:54:47.459Z,24.96
2017-07-17T09:57:15.817Z,24.25
2017-07-17T09:59:44.315Z,22.18
2017-07-17T10:02:12.665Z,23.63
2017-07-17T10:04:41.025Z,25.19
2017-07-17T10:07:09.387Z,25.97
2017-07-17T10:09:38.140Z,24.44
2017-07-17T10:12:06.496Z,23.53
2017-07-17T10:14:34.841Z,23.30
2017-07-17T10:17:03.793Z,23.46
2017-07-17T10:19:32.140Z,24.26
2017-07-17T10:22:00.793Z,24.29
2017-07-17T10:24:29.543Z,24.56
2017-07-17T10:26:57.898Z,24.91
2017-07-17T10:29:26.256Z,24.39
2017-07-17T10:31:54.613Z,26.25
2017-07-17T10:34:23.597Z,25.54
2017-07-17T10:36:51.934Z,25.56
2017-07-17T10:39:20.280Z,26.00
2017-07-17T10:41:49.037Z,26.49
2017-07-17T10:44:17.425Z,26.79
2017-07-17T10:46:45.779Z,26.90
2017-07-17T10:49:14.133Z,27.08
2017-07-17T10:51:42.637Z,25.98
2017-07-17T10:54:10.993Z,28.24
2017-07-17T10:56:39.335Z,26.39
2017-07-17T10:59:07.698Z,25.21
2017-07-17T11:01:36.043Z,26.89
2017-07-17T11:04:04.414Z,29.77
2017-07-17T11:06:32.769Z,28.08
2017-07-17T11:09:01.700Z,32.43
2017-07-17T11:11:30.043Z,28.54
2017-07-17T11:13:58.394Z,29.41
2017-07-17T11:16:26.756Z,32.21
2017-07-17T11:18:55.099Z,31.00
2017-07-17T11:21:23.599Z,33.90
2017-07-17T11:23:51.935Z,35.39
2017-07-17T11:26:20.283Z,35.84
2017-07-17T11:28:48.631Z,34.64
2017-07-17T11:31:16.985Z,34.82
2017-07-17T11:33:45.505Z,34.86
2017-07-17T11:36:13.869Z,36.42
2017-07-17T11:38:42.215Z,37.89
2017-07-17T11:41:10.637Z,37.73
2017-07-17T11:43:38.987Z,36.30
2017-07-17T11:56:22.253Z,36.14
2017-07-17T11:58:50.996Z,35.38
2017-07-17T12:01:19.634Z,35.18
2017-07-17T12:03:48.385Z,35.25
2017-07-17T12:06:16.749Z,34.19
2017-07-17T12:08:45.108Z,35.99
2017-07-17T12:11:13.466Z,35.17
2017-07-17T12:13:42.212Z,36.90
2017-07-17T12:16:10.561Z,37.08
2017-07-17T12:18:39.087Z,36.05
2017-07-17T12:21:07.548Z,37.05
2017-07-17T12:23:35.895Z,37.90
2017-07-17T12:26:04.247Z,37.78
2017-07-17T12:28:32.987Z,38.25
2017-07-17T12:31:01.359Z,36.75
2017-07-17T12:33:29.737Z,37.40
2017-07-17T12:35:58.248Z,38.04
2017-07-17T12:38:26.605Z,37.07
2017-07-17T12:40:54.961Z,36.74
2017-07-17T12:43:23.312Z,38.01
2017-07-17T12:45:52.067Z,37.95
2017-07-17T12:48:20.424Z,39.32
2017-07-17T12:50:48.779Z,38.81
2017-07-17T12:53:17.518Z,39.67
2017-07-17T12:55:45.865Z,40.26
2017-07-17T12:58:14.220Z,39.28
2017-07-17T13:00:42.987Z,37.31
2017-07-17T13:03:11.331Z,37.30
2017-07-17T13:05:40.119Z,36.71
2017-07-17T13:08:08.481Z,37.16
2017-07-17T13:10:36.849Z,38.00
2017-07-17T13:13:05.219Z,39.46
2017-07-17T13:15:33.586Z,39.10
2017-07-17T13:18:02.614Z,38.60
2017-07-17T13:20:30.969Z,39.07
2017-07-17T13:22:59.709Z,38.89
2017-07-17T13:25:28.072Z,39.06
2017-07-17T13:27:56.443Z,38.75
2017-07-17T13:30:24.819Z,39.16
2017-07-17T13:32:53.173Z,37.64
2017-07-17T13:35:22.117Z,37.91
2017-07-17T13:37:50.487Z,38.57
2017-07-17T13:40:18.828Z,38.17
2017-07-17T13:42:47.499Z,37.39
2017-07-17T13:45:16.245Z,37.68
2017-07-17T13:47:44.645Z,38.16
2017-07-17T13:50:13.004Z,37.27
2017-07-17T13:52:41.693Z,37.49
2017-07-17T13:55:10.040Z,37.71
2017-07-17T13:57:38.393Z,37.98
2017-07-17T14:00:07.166Z,38.28
2017-07-17T14:02:35.541Z,39.39
2017-07-17T14:05:04.006Z,38.93
2017-07-17T14:07:32.348Z,39.21
2017-07-17T14:10:00.692Z,38.89
2017-07-17T14:12:29.053Z,38.66
2017-07-17T14:14:57.409Z,39.03
2017-07-17T14:17:25.900Z,38.37
2017-07-17T14:19:54.420Z,39.14
2017-07-17T14:22:23.161Z,39.00
2017-07-17T14:24:51.529Z,39.37
2017-07-17T14:27:19.903Z,39.86
2017-07-17T14:29:48.293Z,40.25
2017-07-17T14:32:16.640Z,40.22
2017-07-17T14:34:45.679Z,39.75
2017-07-17T14:37:14.026Z,39.67
2017-07-17T14:39:42.379Z,40.81
2017-07-17T14:42:11.148Z,41.13
2017-07-17T14:44:39.510Z,40.68
2017-07-17T14:47:07.864Z,40.38
2017-07-17T14:49:36.213Z,40.40
2017-07-17T14:52:05.153Z,38.90
2017-07-17T14:54:33.495Z,39.12
2017-07-17T14:57:01.915Z,40.09
2017-07-17T14:59:30.282Z,39.40
2017-07-17T15:01:58.653Z,39.44
2017-07-17T15:04:27.161Z,39.31
2017-07-17T15:06:55.516Z,39.62
2017-07-17T15:09:23.868Z,39.62
2017-07-17T15:11:52.624Z,40.38
2017-07-17T15:14:20.982Z,41.04
2017-07-17T15:16:49.513Z,40.75
2017-07-17T15:19:18.260Z,41.32
2017-07-17T15:21:46.617Z,41.65
2017-07-17T15:24:15.262Z,42.05
2017-07-17T15:26:44.017Z,40.87
2017-07-17T15:29:12.488Z,39.64
2017-07-17T15:31:40.850Z,40.93
2017-07-17T15:34:09.210Z,42.02
2017-07-17T15:36:37.568Z,41.06
2017-07-17T15:39:06.317Z,40.96
2017-07-17T15:41:34.808Z,41.41
2017-07-17T15:44:03.163Z,41.57
2017-07-17T15:46:31.512Z,40.27
2017-07-17T15:49:00.278Z,40.32
2017-07-17T15:51:28.642Z,40.05
2017-07-17T15:53:57.002Z,40.08
2017-07-17T15:56:25.358Z,39.04
2017-07-17T15:58:53.861Z,38.70
2017-07-17T16:01:22.218Z,38.39
2017-07-17T16:03:50.589Z,38.29
2017-07-17T16:06:18.955Z,38.09
2017-07-17T16:08:47.304Z,38.67
2017-07-17T16:11:15.663Z,38.86
2017-07-17T16:13:44.013Z,39.45
2017-07-17T16:16:12.530Z,39.72
2017-07-17T16:18:40.897Z,40.06
2017-07-17T16:21:09.298Z,40.11
2017-07-17T16:23:37.657Z,39.82
2017-07-17T16:26:06.036Z,39.98
2017-07-17T16:28:34.710Z,40.72
2017-07-17T16:31:03.062Z,40.03
2017-07-17T16:33:31.818Z,40.94
2017-07-17T16:36:00.190Z,40.46
2017-07-17T16:38:28.540Z,40.07
2017-07-17T16:40:57.184Z,39.66
2017-07-17T16:43:25.938Z,40.60
2017-07-17T16:45:54.463Z,40.60
2017-07-17T16:48:23.206Z,41.54
2017-07-17T16:50:51.552Z,41.54
2017-07-17T16:53:19.917Z,41.73
2017-07-17T16:55:48.279Z,42.02
2017-07-17T16:58:17.247Z,40.97
2017-07-17T17:00:45.604Z,41.84
2017-07-17T17:03:13.963Z,40.99
2017-07-17T17:05:42.333Z,41.44
2017-07-17T17:08:10.690Z,41.54
2017-07-17T17:10:39.633Z,41.38
2017-07-17T17:13:07.991Z,42.47
2017-07-17T17:15:36.334Z,42.66
2017-07-17T17:18:05.103Z,41.97
2017-07-17T17:20:33.453Z,42.01
2017-07-17T17:23:02.059Z,42.25
2017-07-17T17:25:30.409Z,42.89
2017-07-17T17:27:58.769Z,43.36
2017-07-17T17:30:27.137Z,43.01
2017-07-17T17:32:55.977Z,43.66
2017-07-17T17:35:24.337Z,43.72
2017-07-17T17:37:52.695Z,43.92
2017-07-17T17:40:21.058Z,43.88
2017-07-17T17:42:49.808Z,43.61
2017-07-17T17:45:18.397Z,43.44
2017-07-17T17:47:46.742Z,43.59
2017-07-17T17:50:15.100Z,44.13
2017-07-17T17:52:43.862Z,44.66
2017-07-17T17:55:12.216Z,43.95
2017-07-17T17:57:40.701Z,44.37
2017-07-17T18:00:09.061Z,44.67
2017-07-17T18:02:37.634Z,44.66
2017-07-17T18:05:05.987Z,45.31
2017-07-17T18:07:34.739Z,45.56
2017-07-17T18:10:03.465Z,45.84
2017-07-17T18:12:32.216Z,45.06
2017-07-17T18:15:00.572Z,45.59
2017-07-17T18:17:28.933Z,46.11
2017-07-17T18:19:57.294Z,46.63
2017-07-17T18:22:25.662Z,47.12
2017-07-17T18:24:54.022Z,47.65
2017-07-17T18:27:22.560Z,48.32
2017-07-17T18:29:50.912Z,48.38
2017-07-17T18:32:19.648Z,48.88
2017-07-17T18:34:48.021Z,49.08
2017-07-17T18:37:16.380Z,49.03
2017-07-17T18:39:44.895Z,49.85
2017-07-17T18:42:13.278Z,49.57
2017-07-17T18:44:41.628Z,50.11
2017-07-17T18:47:10.016Z,50.46
2017-07-17T18:49:38.363Z,50.00
2017-07-17T18:52:06.730Z,50.21
2017-07-17T18:54:35.486Z,50.81
2017-07-17T18:57:03.849Z,50.82
2017-07-17T18:59:32.205Z,51.42
2017-07-17T19:02:00.563Z,51.63
2017-07-17T19:04:29.302Z,52.14
2017-07-17T19:06:57.880Z,52.66
2017-07-17T19:09:26.224Z,53.03
2017-07-17T19:11:54.572Z,53.20
2017-07-17T19:14:22.942Z,53.56
2017-07-17T19:16:51.293Z,54.04
2017-07-17T19:19:19.649Z,54.23
2017-07-17T19:21:48.308Z,54.78
2017-07-17T19:24:17.252Z,55.20
2017-07-17T19:26:45.601Z,55.77
2017-07-17T19:29:13.965Z,55.95
2017-07-17T19:31:42.721Z,56.46
2017-07-17T19:34:11.230Z,56.07
2017-07-17T19:36:39.917Z,56.64
2017-07-17T19:39:08.673Z,56.66
2017-07-17T19:41:37.034Z,57.46
2017-07-17T19:44:05.395Z,57.72
2017-07-17T19:46:33.920Z,58.01
2017-07-17T19:49:02.276Z,58.26
2017-07-17T19:51:30.909Z,58.95
2017-07-17T19:53:59.667Z,58.76
2017-07-17T19:56:28.020Z,58.34
2017-07-17T19:58:56.617Z,58.88
2017-07-17T20:01:24.967Z,59.20
2017-07-17T20:03:53.332Z,59.84
2017-07-17T20:06:21.717Z,60.05
2017-07-17T20:08:50.073Z,60.50
2017-07-17T20:11:18.652Z,60.41
2017-07-17T20:13:47.017Z,61.07
2017-07-17T20:16:15.369Z,61.19
2017-07-17T20:18:43.737Z,61.86
2017-07-17T20:21:12.101Z,62.13
2017-07-17T20:23:40.463Z,62.06
2017-07-17T20:26:09.208Z,62.72
2017-07-17T20:28:37.693Z,63.00
2017-07-17T20:31:06.045Z,63.44
2017-07-17T20:33:34.398Z,63.79
2017-07-17T20:36:03.156Z,64.42
2017-07-17T20:38:31.526Z,64.39
2017-07-17T20:40:59.885Z,64.89
2017-07-17T20:43:28.227Z,65.32
2017-07-17T20:45:56.605Z,65.94
2017-07-17T20:48:25.363Z,66.26
2017-07-17T20:50:53.886Z,66.51
2017-07-17T20:53:22.244Z,66.39
2017-07-17T20:55:50.999Z,66.55
2017-07-17T20:58:19.352Z,67.04
2017-07-17T21:00:47.704Z,67.45
2017-07-17T21:03:17.031Z,67.59
2017-07-17T21:05:45.384Z,67.38
2017-07-17T21:08:14.141Z,67.64
2017-07-17T21:10:42.578Z,67.54
2017-07-17T21:13:10.940Z,68.37
2017-07-17T21:15:39.299Z,68.69
2017-07-17T21:18:08.053Z,68.49
2017-07-17T21:20:36.535Z,68.65
2017-07-17T21:23:04.897Z,69.36
2017-07-17T21:25:33.539Z,68.77
2017-07-17T21:28:02.317Z,70.26
2017-07-17T21:30:31.086Z,69.98
2017-07-17T21:32:59.474Z,70.58
2017-07-17T21:35:28.017Z,70.53
2017-07-17T21:37:56.424Z,70.52
2017-07-17T21:40:24.793Z,70.71
2017-07-17T21:42:53.255Z,71.44
2017-07-17T21:45:21.626Z,71.55
2017-07-17T21:47:49.980Z,71.55
2017-07-17T21:50:18.732Z,70.93
2017-07-17T21:52:47.097Z,70.42
2017-07-17T21:55:15.466Z,71.95
2017-07-17T21:57:43.828Z,71.83
2017-07-17T22:00:12.562Z,72.16
2017-07-17T22:02:40.926Z,71.50
2017-07-17T22:05:09.277Z,71.57
2017-07-17T22:07:37.643Z,70.88
2017-07-17T22:10:06.012Z,72.02
2017-07-17T22:12:34.780Z,72.43
2017-07-17T22:15:03.231Z,72.13
2017-07-17T22:17:31.825Z,72.32
2017-07-17T22:20:00.210Z,72.87
2017-07-17T22:22:28.560Z,73.16
2017-07-17T22:24:56.930Z,73.10
2017-07-17T22:27:25.290Z,73.32
2017-07-17T22:29:53.660Z,73.76
2017-07-17T22:32:22.401Z,73.88
2017-07-17T22:34:50.987Z,73.74
2017-07-17T22:37:19.344Z,74.21
2017-07-17T22:39:47.709Z,74.90
2017-07-17T22:42:16.067Z,74.38
2017-07-17T22:44:45.065Z,74.56
2017-07-17T22:47:14.021Z,74.30
2017-07-17T22:49:42.381Z,74.95
2017-07-17T22:52:10.790Z,74.05
2017-07-17T22:54:39.145Z,74.03
2017-07-17T22:57:07.496Z,74.04
2017-07-17T22:59:35.868Z,74.21
2017-07-17T23:02:04.242Z,74.73
2017-07-17T23:04:33.201Z,74.96
2017-07-17T23:07:01.551Z,75.41
2017-07-17T23:09:29.918Z,75.50
2017-07-17T23:11:58.271Z,76.43
2017-07-17T23:14:27.042Z,76.11
2017-07-17T23:16:55.413Z,75.50
2017-07-17T23:19:23.777Z,75.41
2017-07-17T23:21:52.465Z,75.97
2017-07-17T23:24:20.818Z,76.90
2017-07-17T23:26:49.189Z,77.30
2017-07-17T23:29:17.544Z,77.08
2017-07-17T23:31:46.302Z,77.47
2017-07-17T23:34:14.675Z,77.70
2017-07-17T23:36:43.445Z,78.35
2017-07-17T23:39:11.932Z,77.59
2017-07-17T23:41:40.298Z,78.04
2017-07-17T23:44:08.662Z,77.51
2017-07-17T23:46:37.038Z,78.81
2017-07-17T23:49:05.385Z,77.84
2017-07-17T23:51:34.147Z,79.25
2017-07-17T23:54:02.503Z,79.21
2017-07-17T23:56:30.864Z,79.99
2017-07-17T23:58:59.215Z,80.02
